createdAt,value
2023-05-21T10:52:08.952Z,54.47
2023-05-21T10:54:54.277Z,53.84
2023-05-21T10:57:26.366Z,53.68
2023-05-21T10:59:53.407Z,53.72
2023-05-21T11:02:21.011Z,54.17
2023-05-21T11:04:49.046Z,53.42
2023-05-21T11:07:24.518Z,54.09
2023-05-21T11:09:51.020Z,53.73
2023-05-21T11:12:17.971Z,52.64
2023-05-21T11:14:58.010Z,52.89
2023-05-21T11:17:39.349Z,53.57
2023-05-21T11:20:11.628Z,53.80
2023-05-21T11:22:37.990Z,53.04
2023-05-21T11:25:04.962Z,52.13
2023-05-21T11:27:35.873Z,52.93
2023-05-21T11:30:08.148Z,52.61
2023-05-21T11:33:13.619Z,52.47
2023-05-21T11:35:59.923Z,51.86
2023-05-21T11:38:31.584Z,52.53
2023-05-21T11:41:03.646Z,52.28
2023-05-21T11:43:30.946Z,52.15
2023-05-21T11:45:57.756Z,53.12
2023-05-21T11:48:29.428Z,51.78
2023-05-21T11:50:57.420Z,52.31
2023-05-21T11:53:23.953Z,51.92
2023-05-21T11:55:57.160Z,52.37
2023-05-21T11:58:23.673Z,51.52
2023-05-21T12:00:51.348Z,51.91
2023-05-21T12:03:18.015Z,52.03
2023-05-21T12:05:48.845Z,52.10
2023-05-21T12:08:27.729Z,51.63
2023-05-21T12:11:01.771Z,51.60
2023-05-21T12:13:28.544Z,52.62
2023-05-21T12:15:55.050Z,52.74
2023-05-21T12:18:21.993Z,53.17
2023-05-21T12:20:48.497Z,52.04
2023-05-21T12:23:23.774Z,52.04
2023-05-21T12:25:51.149Z,51.50
2023-05-21T12:28:17.637Z,51.60
2023-05-21T12:30:44.247Z,51.61
2023-05-21T12:33:12.049Z,51.18
2023-05-21T12:35:38.615Z,51.94
2023-05-21T12:38:06.926Z,52.22
2023-05-21T12:40:38.304Z,52.63
2023-05-21T12:43:06.090Z,52.71
2023-05-21T12:45:33.126Z,51.94
2023-05-21T12:48:03.176Z,52.41
2023-05-21T12:50:29.773Z,51.88
2023-05-21T12:52:58.398Z,51.07
2023-05-21T12:55:28.492Z,51.64
2023-05-21T12:58:05.583Z,51.66
2023-05-21T13:00:32.803Z,51.83
2023-05-21T13:03:00.975Z,52.00
2023-05-21T13:05:27.569Z,52.05
2023-05-21T13:07:53.961Z,51.44
2023-05-21T13:10:20.499Z,51.77
2023-05-21T13:12:46.974Z,52.63
2023-05-21T13:15:15.548Z,52.93
2023-05-21T13:17:42.120Z,52.05
2023-05-21T13:20:15.668Z,51.77
2023-05-21T13:22:46.390Z,52.18
2023-05-21T13:25:18.181Z,52.56
2023-05-21T13:27:44.972Z,52.49
2023-05-21T13:30:11.880Z,52.25
2023-05-21T13:32:39.631Z,52.19
2023-05-21T13:35:06.972Z,52.17
2023-05-21T13:37:36.099Z,52.89
2023-05-21T13:40:04.728Z,52.31
2023-05-21T13:42:31.200Z,52.18
2023-05-21T13:44:58.146Z,52.94
2023-05-21T13:47:24.787Z,52.95
2023-05-21T13:49:51.394Z,53.24
2023-05-21T13:52:17.857Z,52.20
2023-05-21T13:54:44.265Z,53.00
2023-05-21T13:57:10.797Z,52.58
2023-05-21T13:59:37.354Z,52.36
2023-05-21T14:02:04.033Z,52.67
2023-05-21T14:04:30.694Z,52.19
2023-05-21T14:06:57.235Z,52.80
2023-05-21T14:09:26.976Z,52.69
2023-05-21T14:11:54.969Z,52.42
2023-05-21T14:14:21.851Z,52.37
2023-05-21T14:16:49.187Z,52.89
2023-05-21T14:19:16.448Z,52.27
2023-05-21T14:21:43.211Z,53.13
2023-05-21T14:24:10.282Z,52.98
2023-05-21T14:26:42.940Z,52.43
2023-05-21T14:29:10.097Z,52.40
2023-05-21T14:31:37.822Z,52.94
2023-05-21T14:34:05.165Z,52.62
2023-05-21T14:36:32.447Z,53.38
2023-05-21T14:38:59.124Z,52.86
2023-05-21T14:41:26.932Z,52.21
2023-05-21T14:43:53.916Z,52.28
2023-05-21T14:46:20.657Z,52.68
2023-05-21T14:48:47.108Z,52.63
2023-05-21T14:51:14.284Z,53.52
2023-05-21T14:53:40.745Z,53.25
2023-05-21T14:56:07.960Z,53.93
2023-05-21T14:58:34.404Z,54.51
2023-05-21T15:01:02.512Z,53.50
2023-05-21T15:03:28.962Z,53.49
2023-05-21T15:05:55.573Z,53.66
2023-05-21T15:08:22.658Z,54.45
2023-05-21T15:10:49.269Z,53.98
2023-05-21T15:13:15.704Z,54.17
2023-05-21T15:15:42.139Z,54.40
2023-05-21T15:18:08.912Z,53.74
2023-05-21T15:20:35.413Z,53.56
2023-05-21T15:25:31.220Z,53.75
2023-05-21T15:27:57.673Z,53.89
2023-05-21T15:30:25.378Z,53.51
2023-05-21T15:32:51.959Z,53.06
2023-05-21T15:35:18.681Z,53.14
2023-05-21T15:37:46.077Z,52.82
2023-05-21T15:40:12.942Z,52.77
2023-05-21T15:42:39.281Z,53.31
2023-05-21T15:45:06.326Z,53.55
2023-05-21T15:47:32.968Z,53.07
2023-05-21T15:50:00.469Z,53.17
2023-05-21T15:52:27.156Z,52.65
2023-05-21T15:54:54.754Z,52.02
2023-05-21T15:57:21.202Z,52.07
2023-05-21T15:59:47.719Z,52.09
2023-05-21T16:02:14.193Z,51.98
2023-05-21T16:04:40.650Z,51.45
2023-05-21T16:07:07.125Z,51.07
2023-05-21T16:09:33.742Z,50.88
2023-05-21T16:12:00.821Z,50.53
2023-05-21T16:14:29.174Z,50.59
2023-05-21T16:16:55.873Z,50.42
2023-05-21T16:19:22.318Z,49.44
2023-05-21T16:21:48.753Z,48.97
2023-05-21T16:24:15.461Z,49.01
2023-05-21T16:26:41.862Z,47.92
2023-05-21T16:29:08.346Z,45.34
2023-05-21T16:31:34.906Z,44.30
2023-05-21T16:34:01.344Z,42.56
2023-05-21T16:36:27.969Z,42.07
2023-05-21T16:38:54.419Z,41.06
2023-05-21T16:41:21.650Z,40.04
2023-05-21T16:43:48.222Z,39.64
2023-05-21T16:46:14.729Z,39.70
2023-05-21T16:48:42.612Z,38.70
2023-05-21T16:51:09.106Z,38.07
2023-05-21T16:53:35.610Z,37.70
2023-05-21T16:56:01.973Z,36.97
2023-05-21T16:58:28.428Z,37.19
2023-05-21T17:00:54.851Z,37.21
2023-05-21T17:03:21.393Z,36.71
2023-05-21T17:05:47.874Z,37.15
2023-05-21T17:08:14.309Z,37.08
2023-05-21T17:10:40.691Z,36.46
2023-05-21T17:13:20.912Z,36.61
2023-05-21T17:15:48.587Z,36.21
2023-05-21T17:18:15.298Z,36.51
2023-05-21T17:20:43.917Z,37.10
2023-05-21T17:23:11.473Z,36.74
2023-05-21T17:25:38.229Z,37.78
2023-05-21T17:28:04.953Z,39.32
2023-05-21T17:30:31.393Z,38.59
2023-05-21T17:32:58.265Z,39.37
2023-05-21T17:35:24.795Z,40.60
2023-05-21T17:37:53.203Z,41.56
2023-05-21T17:40:21.258Z,42.23
2023-05-21T17:42:47.872Z,42.77
2023-05-21T17:45:14.428Z,44.43
2023-05-21T17:47:40.968Z,45.92
2023-05-21T17:50:08.155Z,47.17
2023-05-21T17:52:34.593Z,48.27
2023-05-21T17:55:01.692Z,49.24
2023-05-21T17:57:28.077Z,50.38
2023-05-21T17:59:55.111Z,50.96
2023-05-21T18:02:23.339Z,51.71
2023-05-21T18:04:49.910Z,51.87
2023-05-21T18:07:16.536Z,52.63
2023-05-21T18:09:42.955Z,52.66
2023-05-21T18:12:09.422Z,52.81
2023-05-21T18:14:35.852Z,53.29
2023-05-21T18:17:02.626Z,53.80
2023-05-21T18:19:30.431Z,53.61
2023-05-21T18:21:57.154Z,54.13
2023-05-21T18:24:23.577Z,54.85
2023-05-21T18:26:50.012Z,55.23
2023-05-21T18:29:16.403Z,54.89
2023-05-21T18:31:45.787Z,55.46
2023-05-21T18:34:12.391Z,55.48
2023-05-21T18:36:39.085Z,55.44
2023-05-21T18:39:07.016Z,56.08
2023-05-21T18:41:34.039Z,56.06
2023-05-21T18:44:03.576Z,56.47
2023-05-21T18:46:30.120Z,56.52
2023-05-21T18:48:56.598Z,56.95
2023-05-21T18:51:23.025Z,56.01
2023-05-21T18:53:49.481Z,57.19
2023-05-21T18:56:16.259Z,57.48
2023-05-21T18:58:42.759Z,57.52
2023-05-21T19:01:09.198Z,58.20
2023-05-21T19:03:35.726Z,57.88
2023-05-21T19:06:02.295Z,58.20
2023-05-21T19:08:28.640Z,58.21
2023-05-21T19:10:55.149Z,58.52
2023-05-21T19:13:23.224Z,58.35
2023-05-21T19:15:49.763Z,58.84
2023-05-21T19:18:17.171Z,58.92
2023-05-21T19:20:43.727Z,59.15
2023-05-21T19:23:10.152Z,59.50
2023-05-21T19:25:36.536Z,58.52
2023-05-21T19:28:03.083Z,59.97
2023-05-21T19:30:29.491Z,60.08
2023-05-21T19:32:56.330Z,60.20
2023-05-21T19:35:22.881Z,60.75
2023-05-21T19:37:49.207Z,59.71
2023-05-21T19:40:17.558Z,61.23
2023-05-21T19:42:44.512Z,61.29
2023-05-21T19:45:11.733Z,61.40
2023-05-21T19:47:40.904Z,61.63
2023-05-21T19:50:08.023Z,62.05
2023-05-21T19:52:34.478Z,61.84
2023-05-21T19:55:04.729Z,62.14
2023-05-21T19:57:32.565Z,62.57
2023-05-21T19:59:59.415Z,62.46
2023-05-21T20:02:28.460Z,62.93
2023-05-21T20:04:56.885Z,62.98
2023-05-21T20:07:23.715Z,63.01
2023-05-21T20:09:50.455Z,63.14
2023-05-21T20:12:16.839Z,63.49
2023-05-21T20:14:46.600Z,63.56
2023-05-21T20:17:13.587Z,63.74
2023-05-21T20:19:40.030Z,64.12
2023-05-21T20:22:06.512Z,64.60
2023-05-21T20:24:32.957Z,63.81
2023-05-21T20:27:01.604Z,64.54
2023-05-21T20:29:28.765Z,64.77
2023-05-21T20:31:55.435Z,65.06
2023-05-21T20:34:21.823Z,65.20
2023-05-21T20:36:48.422Z,65.74
2023-05-21T20:39:15.577Z,64.96
2023-05-21T20:41:44.531Z,65.54
2023-05-21T20:44:11.139Z,65.95
2023-05-21T20:46:38.310Z,66.31
2023-05-21T20:49:05.164Z,66.18
2023-05-21T20:51:31.661Z,66.57
2023-05-21T20:53:58.048Z,66.59
2023-05-21T20:56:40.801Z,66.39
2023-05-21T20:59:10.483Z,66.42
2023-05-21T21:01:37.955Z,66.51
2023-05-21T21:04:04.998Z,66.81
2023-05-21T21:06:31.806Z,67.19
2023-05-21T21:08:58.385Z,66.99
2023-05-21T21:11:25.024Z,67.63
2023-05-21T21:13:51.840Z,67.37
2023-05-21T21:16:18.584Z,67.29
2023-05-21T21:18:46.796Z,67.48
2023-05-21T21:21:13.406Z,67.57
2023-05-21T21:23:39.850Z,67.34
2023-05-21T21:26:06.301Z,67.81
2023-05-21T21:28:32.694Z,67.78
2023-05-21T21:30:59.103Z,67.51
2023-05-21T21:33:26.668Z,68.05
2023-05-21T21:35:53.210Z,68.43
2023-05-21T21:38:19.565Z,68.55
2023-05-21T21:40:46.035Z,68.07
2023-05-21T21:43:12.471Z,68.52
2023-05-21T21:45:38.885Z,68.60
2023-05-21T21:48:05.772Z,68.83
2023-05-21T21:50:32.414Z,68.91
2023-05-21T21:52:59.834Z,68.26
2023-05-21T21:55:26.298Z,68.80
2023-05-21T21:57:52.701Z,68.92
2023-05-21T22:00:19.292Z,69.51
2023-05-21T22:02:46.625Z,68.75
2023-05-21T22:05:14.833Z,69.40
2023-05-21T22:07:42.625Z,69.94
2023-05-21T22:10:09.693Z,69.79
2023-05-21T22:12:36.143Z,69.83
2023-05-21T22:15:06.612Z,69.99
2023-05-21T22:17:33.979Z,70.08
2023-05-21T22:20:01.179Z,70.69
2023-05-21T22:22:27.656Z,70.56
2023-05-21T22:24:54.351Z,70.43
2023-05-21T22:27:20.903Z,70.05
2023-05-21T22:29:47.554Z,71.29
2023-05-21T22:32:13.979Z,70.79
2023-05-21T22:34:41.777Z,71.25
2023-05-21T22:37:08.353Z,71.57
2023-05-21T22:39:34.755Z,71.44
2023-05-21T22:42:01.968Z,71.66
2023-05-21T22:44:28.398Z,71.78
2023-05-21T22:46:56.442Z,72.00
2023-05-21T22:49:23.040Z,71.90
2023-05-21T22:51:50.882Z,72.44
2023-05-21T22:54:17.431Z,72.38
2023-05-21T22:56:44.305Z,72.18
2023-05-21T22:59:10.878Z,72.32
2023-05-21T23:01:38.200Z,72.44
2023-05-21T23:04:04.764Z,72.79
2023-05-21T23:06:31.706Z,72.91
2023-05-21T23:08:58.130Z,72.64
2023-05-21T23:11:24.662Z,73.10
2023-05-21T23:13:51.059Z,73.13
2023-05-21T23:16:17.490Z,73.04
2023-05-21T23:18:43.863Z,73.34
2023-05-21T23:21:10.488Z,73.71
2023-05-21T23:23:36.896Z,74.21
2023-05-21T23:26:03.321Z,74.37
2023-05-21T23:28:29.823Z,74.63
2023-05-21T23:30:56.325Z,74.37
2023-05-21T23:33:22.743Z,75.02
2023-05-21T23:35:49.147Z,75.95
2023-05-21T23:38:15.680Z,76.19
2023-05-21T23:40:42.283Z,76.17
2023-05-21T23:43:08.756Z,76.02
2023-05-21T23:45:35.393Z,76.56
2023-05-21T23:48:01.826Z,75.58
2023-05-21T23:50:28.270Z,76.91
2023-05-21T23:52:54.942Z,76.76
2023-05-21T23:55:21.273Z,76.60
